createdAt,value
2022-08-26T00:01:46.853Z,100897.16
2022-08-26T00:04:13.853Z,100898.25
2022-08-26T00:06:42.692Z,100887.56
2022-08-26T00:09:15.911Z,100894.84
2022-08-26T00:11:43.068Z,100890.59
2022-08-26T00:14:09.943Z,100892.44
2022-08-26T00:16:36.862Z,100889.94
2022-08-26T00:19:08.733Z,100883.75
2022-08-26T00:21:35.908Z,100886.53
2022-08-26T00:24:04.788Z,100889.25
2022-08-26T00:26:33.877Z,100888.47
2022-08-26T00:29:01.051Z,100884.88
2022-08-26T00:31:27.933Z,100885.97
2022-08-26T00:33:59.000Z,100883.25
2022-08-26T00:36:29.803Z,100877.91
2022-08-26T00:38:57.803Z,100881.69
2022-08-26T00:41:24.645Z,100873.63
2022-08-26T00:43:53.389Z,100875.59
2022-08-26T00:46:28.741Z,100877.53
2022-08-26T00:49:11.862Z,100874.81
2022-08-26T00:51:48.365Z,100878.41
2022-08-26T00:54:16.297Z,100875.69
2022-08-26T00:56:59.834Z,100882.00
2022-08-26T00:59:29.207Z,100882.00
2022-08-26T01:02:02.542Z,100875.69
2022-08-26T01:04:33.585Z,100874.72
2022-08-26T01:07:00.793Z,100883.84
2022-08-26T01:09:28.236Z,100879.38
2022-08-26T01:11:59.429Z,100869.38
2022-08-26T01:14:33.036Z,100881.13
2022-08-26T01:17:05.092Z,100877.53
2022-08-26T01:19:44.931Z,100868.50
2022-08-26T01:22:21.728Z,100870.25
2022-08-26T01:24:53.876Z,100875.91
2022-08-26T01:27:22.034Z,100869.59
2022-08-26T01:29:51.058Z,100866.97
2022-08-26T01:32:22.426Z,100873.38
2022-08-26T01:34:50.475Z,100872.53
2022-08-26T01:37:33.832Z,100876.31
2022-08-26T01:40:00.878Z,100876.53
2022-08-26T01:42:28.529Z,100873.81
2022-08-26T01:45:10.462Z,100875.72
2022-08-26T01:47:38.609Z,100878.66
2022-08-26T01:50:28.180Z,100880.59
2022-08-26T01:53:00.582Z,100875.38
2022-08-26T01:55:32.878Z,100875.47
2022-08-26T01:58:05.648Z,100881.03
2022-08-26T02:00:34.893Z,100878.38
2022-08-26T02:03:17.874Z,100872.28
2022-08-26T02:05:53.290Z,100867.06
2022-08-26T02:08:36.351Z,100873.56
2022-08-26T02:11:03.821Z,100877.44
2022-08-26T02:13:33.661Z,100879.38
2022-08-26T02:16:03.724Z,100869.59
2022-08-26T02:18:35.305Z,100879.63
2022-08-26T02:21:03.192Z,100875.22
2022-08-26T02:23:34.142Z,100882.47
2022-08-26T02:26:23.064Z,100874.50
2022-08-26T02:29:03.862Z,100877.34
2022-08-26T02:31:31.288Z,100869.38
2022-08-26T02:34:21.304Z,100868.59
2022-08-26T02:36:49.380Z,100870.66
2022-08-26T02:39:22.067Z,100865.53
2022-08-26T02:41:50.027Z,100856.78
2022-08-26T02:44:17.441Z,100859.72
2022-08-26T02:46:47.209Z,100868.03
2022-08-26T02:49:16.215Z,100859.31
2022-08-26T02:51:43.902Z,100855.91
2022-08-26T02:54:10.780Z,100857.97
2022-08-26T02:56:37.824Z,100855.44
2022-08-26T02:59:04.702Z,100856.41
2022-08-26T03:01:35.005Z,100850.31
2022-08-26T03:04:05.220Z,100854.06
2022-08-26T03:06:32.759Z,100842.44
2022-08-26T03:08:59.686Z,100848.84
2022-08-26T03:11:29.732Z,100848.94
2022-08-26T03:14:00.548Z,100832.84
2022-08-26T03:16:32.861Z,100837.38
2022-08-26T03:19:00.924Z,100829.50
2022-08-26T03:21:27.921Z,100845.78
2022-08-26T03:23:54.894Z,100836.00
2022-08-26T03:26:26.052Z,100834.25
2022-08-26T03:29:11.613Z,100830.75
2022-08-26T03:31:38.546Z,100831.91
2022-08-26T03:34:06.952Z,100823.97
2022-08-26T03:36:33.744Z,100829.59
2022-08-26T03:39:04.881Z,100825.22
2022-08-26T03:41:34.312Z,100830.72
2022-08-26T03:44:01.973Z,100832.78
2022-08-26T03:46:33.049Z,100833.84
2022-08-26T03:49:01.890Z,100830.34
2022-08-26T03:51:29.566Z,100834.22
2022-08-26T03:53:58.991Z,100825.41
2022-08-26T03:56:27.065Z,100826.34
2022-08-26T03:58:54.248Z,100825.59
2022-08-26T04:01:21.142Z,100826.63
2022-08-26T04:04:00.878Z,100823.25
2022-08-26T04:06:33.190Z,100828.75
2022-08-26T04:09:05.285Z,100817.13
2022-08-26T04:11:34.262Z,100824.47
2022-08-26T04:14:06.455Z,100825.47
2022-08-26T04:16:34.805Z,100820.22
2022-08-26T04:19:02.255Z,100820.31
2022-08-26T04:21:29.484Z,100822.25
2022-08-26T04:23:56.405Z,100825.88
2022-08-26T04:26:25.634Z,100824.13
2022-08-26T04:28:55.315Z,100828.69
2022-08-26T04:31:22.830Z,100826.94
2022-08-26T04:33:50.735Z,100831.56
2022-08-26T04:36:20.215Z,100830.81
2022-08-26T04:38:47.843Z,100835.34
2022-08-26T04:41:14.854Z,100827.31
2022-08-26T04:43:42.940Z,100824.59
2022-08-26T04:46:12.791Z,100824.59
2022-08-26T04:48:40.896Z,100825.53
2022-08-26T04:51:08.322Z,100828.44
2022-08-26T04:53:37.020Z,100824.09
2022-08-26T04:56:04.993Z,100833.06
2022-08-26T04:58:32.524Z,100831.16
2022-08-26T05:00:59.797Z,100831.16
2022-08-26T05:03:30.265Z,100829.25
2022-08-26T05:05:58.571Z,100816.47
2022-08-26T05:08:26.088Z,100824.50
2022-08-26T05:10:55.895Z,100834.13
2022-08-26T05:13:26.155Z,100840.75
2022-08-26T05:15:53.186Z,100844.56
2022-08-26T05:18:23.610Z,100837.72
2022-08-26T05:20:54.673Z,100839.06
2022-08-26T05:23:23.792Z,100825.03
2022-08-26T05:25:58.376Z,100829.78
2022-08-26T05:28:29.004Z,100832.91
2022-08-26T05:30:56.353Z,100826.34
2022-08-26T05:33:23.662Z,100834.00
2022-08-26T05:35:50.489Z,100827.13
2022-08-26T05:38:21.089Z,100836.81
2022-08-26T05:40:52.687Z,100839.31
2022-08-26T05:43:20.472Z,100838.03
2022-08-26T05:45:50.409Z,100833.44
2022-08-26T05:48:24.255Z,100833.03
2022-08-26T05:50:54.499Z,100836.72
2022-08-26T05:53:23.872Z,100836.94
2022-08-26T05:55:54.832Z,100832.69
2022-08-26T05:58:23.643Z,100841.00
2022-08-26T06:01:03.757Z,100841.88
2022-08-26T06:03:34.033Z,100847.31
2022-08-26T06:06:09.803Z,100839.47
2022-08-26T06:08:37.577Z,100836.19
2022-08-26T06:11:08.547Z,100832.13
2022-08-26T06:13:45.956Z,100837.16
2022-08-26T06:16:17.214Z,100834.75
2022-08-26T06:18:46.992Z,100832.50
2022-08-26T06:21:25.615Z,100835.72
2022-08-26T06:24:15.429Z,100831.78
2022-08-26T06:26:50.837Z,100836.03
2022-08-26T06:29:24.105Z,100843.41
2022-08-26T06:31:53.471Z,100844.28
2022-08-26T06:34:20.479Z,100845.84
2022-08-26T06:36:49.221Z,100846.50
2022-08-26T06:39:19.042Z,100850.78
2022-08-26T06:41:47.709Z,100855.03
2022-08-26T06:44:16.348Z,100845.72
2022-08-26T06:46:44.333Z,100847.38
2022-08-26T06:49:12.850Z,100850.78
2022-08-26T06:51:40.753Z,100844.25
2022-08-26T06:54:10.294Z,100848.63
2022-08-26T06:56:41.642Z,100852.09
2022-08-26T06:59:11.178Z,100851.13
2022-08-26T07:01:44.683Z,100848.22
2022-08-26T07:04:15.752Z,100858.22
2022-08-26T07:06:48.882Z,100858.13
2022-08-26T07:09:16.801Z,100861.63
2022-08-26T07:11:44.429Z,100860.47
2022-08-26T07:14:12.036Z,100853.97
2022-08-26T07:16:41.127Z,100858.34
2022-08-26T07:19:11.214Z,100862.47
2022-08-26T07:21:41.493Z,100856.88
2022-08-26T07:24:11.058Z,100855.56
2022-08-26T07:26:39.040Z,100852.53
2022-08-26T07:29:12.274Z,100844.09
2022-08-26T07:31:39.510Z,100848.16
2022-08-26T07:34:10.470Z,100844.16
2022-08-26T07:36:37.501Z,100851.88
2022-08-26T07:39:04.833Z,100858.97
2022-08-26T07:41:31.704Z,100863.31
2022-08-26T07:43:59.281Z,100863.25
2022-08-26T07:46:27.081Z,100854.88
2022-08-26T07:48:57.763Z,100861.88
2022-08-26T07:51:24.796Z,100866.25
2022-08-26T07:53:53.148Z,100873.31
2022-08-26T07:56:23.100Z,100867.66
2022-08-26T07:58:51.983Z,100875.81
2022-08-26T08:01:25.030Z,100869.31
2022-08-26T08:03:53.982Z,100870.19
2022-08-26T08:06:27.307Z,100869.97
2022-08-26T08:08:55.734Z,100864.31
2022-08-26T08:11:23.492Z,100872.16
2022-08-26T08:13:52.347Z,100865.84
2022-08-26T08:16:26.201Z,100866.72
2022-08-26T08:18:53.497Z,100876.72
2022-08-26T08:21:22.002Z,100879.56
2022-08-26T08:23:56.584Z,100874.22
2022-08-26T08:26:25.047Z,100876.06
2022-08-26T08:28:56.569Z,100876.94
2022-08-26T08:34:15.025Z,100874.22
2022-08-26T08:36:42.030Z,100871.28
2022-08-26T08:39:09.579Z,100869.13
2022-08-26T08:42:10.786Z,100861.53
2022-08-26T08:44:42.107Z,100869.38
2022-08-26T08:47:34.284Z,100866.22
2022-08-26T08:50:43.517Z,100874.94
2022-08-26T08:53:16.918Z,100864.63
2022-08-26T08:56:23.732Z,100859.69
2022-08-26T08:59:20.703Z,100862.25
2022-08-26T09:02:19.221Z,100851.06
2022-08-26T09:05:25.150Z,100859.53
2022-08-26T09:08:31.492Z,100848.97
2022-08-26T09:11:01.448Z,100851.13
2022-08-26T09:13:29.213Z,100854.22
2022-08-26T09:16:11.622Z,100858.00
2022-08-26T09:19:00.631Z,100853.97
2022-08-26T09:21:28.948Z,100859.00
2022-08-26T09:23:57.513Z,100860.19
2022-08-26T09:26:39.598Z,100854.94
2022-08-26T09:32:13.545Z,100849.56
2022-08-26T09:35:15.319Z,100854.56
2022-08-26T09:40:35.479Z,100849.63
2022-08-26T09:43:22.491Z,100851.34
2022-08-26T09:46:21.261Z,100843.19
2022-08-26T09:48:48.413Z,100845.81
2022-08-26T09:51:31.950Z,100846.22
2022-08-26T09:54:01.757Z,100836.81
2022-08-26T09:56:32.778Z,100839.88
2022-08-26T09:59:01.522Z,100837.66
2022-08-26T10:01:41.897Z,100825.19
2022-08-26T10:04:24.615Z,100834.28
2022-08-26T10:07:10.010Z,100832.47
2022-08-26T10:09:42.981Z,100831.09
2022-08-26T10:12:19.206Z,100826.97
2022-08-26T10:14:56.389Z,100827.34
2022-08-26T10:17:53.344Z,100819.56
2022-08-26T10:20:31.196Z,100814.72
2022-08-26T10:23:02.903Z,100819.56
2022-08-26T10:25:38.699Z,100808.16
2022-08-26T10:28:16.476Z,100809.41
2022-08-26T10:30:53.415Z,100794.41
2022-08-26T10:33:20.230Z,100802.97
2022-08-26T10:36:00.214Z,100796.06
2022-08-26T10:38:38.022Z,100794.31
2022-08-26T10:41:18.545Z,100786.38
2022-08-26T10:43:57.782Z,100776.44
2022-08-26T10:46:39.637Z,100773.66
2022-08-26T10:49:17.705Z,100767.56
2022-08-26T10:52:40.547Z,100765.22
2022-08-26T10:55:25.231Z,100761.22
2022-08-26T10:58:26.679Z,100768.16
2022-08-26T11:01:41.586Z,100758.59
2022-08-26T11:04:51.424Z,100752.47
2022-08-26T11:07:41.005Z,100759.16
2022-08-26T11:10:17.128Z,100752.44
2022-08-26T11:12:49.382Z,100756.91
2022-08-26T11:15:24.643Z,100751.06
2022-08-26T11:17:51.688Z,100758.97
2022-08-26T11:20:41.469Z,100753.00
2022-08-26T11:23:23.802Z,100750.63
2022-08-26T11:25:57.151Z,100736.66
2022-08-26T11:28:50.877Z,100735.56
2022-08-26T11:31:18.898Z,100730.94
2022-08-26T11:33:59.986Z,100722.59
2022-08-26T11:36:42.035Z,100723.22
2022-08-26T11:39:36.641Z,100716.47
2022-08-26T11:42:24.982Z,100702.50
2022-08-26T11:44:58.070Z,100705.25
2022-08-26T11:47:32.468Z,100700.50
2022-08-26T11:50:14.388Z,100704.09
2022-08-26T11:52:41.235Z,100696.75
2022-08-26T11:55:14.803Z,100697.34
2022-08-26T11:57:49.727Z,100694.47
2022-08-26T12:00:34.873Z,100679.69
2022-08-26T12:03:07.705Z,100679.50
2022-08-26T12:05:46.408Z,100677.25
2022-08-26T12:08:21.549Z,100669.78
2022-08-26T12:10:48.996Z,100664.75
2022-08-26T12:13:26.586Z,100678.88
2022-08-26T12:15:59.763Z,100670.44
2022-08-26T12:18:37.215Z,100657.06
2022-08-26T12:21:16.150Z,100656.38
2022-08-26T12:23:47.694Z,100655.81
2022-08-26T12:26:35.939Z,100649.91
2022-08-26T12:29:19.926Z,100654.25
2022-08-26T12:31:47.881Z,100661.63
2022-08-26T12:34:17.894Z,100657.16
2022-08-26T12:36:54.353Z,100657.31
2022-08-26T12:39:30.253Z,100652.28
2022-08-26T12:42:24.055Z,100656.50
2022-08-26T12:45:03.269Z,100654.22
2022-08-26T12:47:42.900Z,100648.16
2022-08-26T12:50:30.038Z,100644.72
2022-08-26T12:53:06.974Z,100651.22
2022-08-26T12:55:50.656Z,100650.63
2022-08-26T12:58:38.348Z,100648.50
2022-08-26T13:01:05.253Z,100652.81
2022-08-26T13:03:43.598Z,100644.72
2022-08-26T13:06:27.842Z,100647.63
2022-08-26T13:09:00.605Z,100637.81
2022-08-26T13:11:41.186Z,100622.50
2022-08-26T13:14:15.875Z,100611.81
2022-08-26T13:16:51.498Z,100610.06
2022-08-26T13:19:22.229Z,100603.13
2022-08-26T13:21:53.929Z,100594.03
2022-08-26T13:24:32.751Z,100589.53
2022-08-26T13:27:00.782Z,100597.78
2022-08-26T13:29:27.619Z,100601.16
2022-08-26T13:31:55.745Z,100597.53
2022-08-26T13:34:23.869Z,100607.75
2022-08-26T13:36:55.171Z,100610.75
2022-08-26T13:39:22.715Z,100627.09
2022-08-26T13:41:49.860Z,100635.91
2022-08-26T13:44:16.694Z,100641.44
2022-08-26T13:49:15.283Z,100645.31
2022-08-26T13:51:42.090Z,100649.78
2022-08-26T13:54:09.367Z,100648.75
2022-08-26T13:56:36.268Z,100636.06
2022-08-26T13:59:04.544Z,100637.06
2022-08-26T14:01:32.760Z,100627.09
2022-08-26T14:03:59.701Z,100632.28
2022-08-26T14:06:26.890Z,100630.97
2022-08-26T14:08:53.668Z,100618.97
2022-08-26T14:11:21.343Z,100614.91
2022-08-26T14:13:48.183Z,100606.13
2022-08-26T14:16:27.515Z,100605.38
2022-08-26T14:18:54.522Z,100593.84
2022-08-26T14:21:21.725Z,100585.03
2022-08-26T14:23:48.668Z,100584.47
2022-08-26T14:26:28.464Z,100581.16
2022-08-26T14:29:02.425Z,100594.09
2022-08-26T14:31:31.603Z,100592.38
2022-08-26T14:34:06.153Z,100594.09
2022-08-26T14:36:33.456Z,100604.06
2022-08-26T14:39:07.591Z,100591.25
2022-08-26T14:41:39.000Z,100593.41
2022-08-26T14:44:11.578Z,100587.03
2022-08-26T14:46:52.741Z,100596.41
2022-08-26T14:49:21.544Z,100600.13
2022-08-26T14:51:48.785Z,100605.59
2022-08-26T14:54:17.935Z,100588.34
2022-08-26T14:56:59.285Z,100593.94
2022-08-26T14:59:34.537Z,100595.69
2022-08-26T15:02:01.705Z,100604.78
2022-08-26T15:04:29.238Z,100587.47
2022-08-26T15:06:58.700Z,100585.44
2022-08-26T15:09:27.540Z,100598.88
2022-08-26T15:11:55.044Z,100592.38
2022-08-26T15:14:22.686Z,100584.88
2022-08-26T15:16:53.894Z,100590.94
2022-08-26T15:19:26.243Z,100591.53
2022-08-26T15:21:53.447Z,100591.25
2022-08-26T15:24:23.954Z,100586.94
2022-08-26T15:26:50.858Z,100594.00
2022-08-26T15:29:18.492Z,100589.25
2022-08-26T15:31:45.617Z,100590.13
2022-08-26T15:34:16.319Z,100588.09
2022-08-26T15:36:45.761Z,100604.53
2022-08-26T15:39:14.509Z,100606.56
2022-08-26T15:41:41.343Z,100604.25
2022-08-26T15:44:11.285Z,100607.13
2022-08-26T15:46:39.074Z,100603.66
2022-08-26T15:49:06.544Z,100596.44
2022-08-26T15:51:45.575Z,100594.72
2022-08-26T15:54:15.934Z,100595.88
2022-08-26T15:56:43.582Z,100585.03
2022-08-26T15:59:11.446Z,100587.78
2022-08-26T16:01:38.960Z,100578.56
2022-08-26T16:04:06.344Z,100585.78
2022-08-26T16:06:37.084Z,100589.38
2022-08-26T16:09:05.769Z,100593.25
2022-08-26T16:11:34.420Z,100604.50
2022-08-26T16:14:01.431Z,100599.28
2022-08-26T16:16:28.347Z,100591.50
2022-08-26T16:18:55.218Z,100599.13
2022-08-26T16:21:27.750Z,100603.91
2022-08-26T16:23:56.483Z,100619.72
2022-08-26T16:26:32.710Z,100624.59
2022-08-26T16:29:02.258Z,100625.88
2022-08-26T16:31:29.320Z,100627.16
2022-08-26T16:33:56.406Z,100627.44
2022-08-26T16:36:23.467Z,100628.56
2022-08-26T16:38:56.248Z,100624.25
2022-08-26T16:41:26.782Z,100629.13
2022-08-26T16:43:54.693Z,100646.66
2022-08-26T16:46:25.490Z,100650.97
2022-08-26T16:48:58.129Z,100650.31
2022-08-26T16:51:27.644Z,100651.63
2022-08-26T16:53:56.748Z,100650.97
2022-08-26T16:56:34.175Z,100654.78
2022-08-26T16:59:04.084Z,100653.09
2022-08-26T17:01:30.916Z,100658.59
2022-08-26T17:03:57.811Z,100671.53
2022-08-26T17:06:24.597Z,100674.56
2022-08-26T17:08:52.967Z,100664.66
2022-08-26T17:11:19.775Z,100652.88
2022-08-26T17:13:46.644Z,100656.38
2022-08-26T17:16:13.832Z,100659.97
2022-08-26T17:18:40.929Z,100662.47
2022-08-26T17:21:12.939Z,100667.56
2022-08-26T17:23:41.464Z,100671.78
2022-08-26T17:26:09.461Z,100672.88
2022-08-26T17:28:36.381Z,100680.56
2022-08-26T17:31:04.748Z,100679.09
2022-08-26T17:33:32.731Z,100682.19
2022-08-26T17:36:00.639Z,100690.69
2022-08-26T17:38:29.017Z,100699.41
2022-08-26T17:40:57.413Z,100707.81
2022-08-26T17:43:26.629Z,100706.31
2022-08-26T17:46:07.002Z,100706.56
2022-08-26T17:48:36.267Z,100712.28
2022-08-26T17:51:12.469Z,100716.47
2022-08-26T17:53:41.127Z,100723.41
2022-08-26T17:56:11.075Z,100725.72
2022-08-26T17:58:37.977Z,100734.59
2022-08-26T18:01:06.134Z,100724.50
2022-08-26T18:03:33.384Z,100719.75
2022-08-26T18:06:00.232Z,100723.94
2022-08-26T18:08:27.031Z,100732.59
2022-08-26T18:10:53.845Z,100734.03
2022-08-26T18:13:20.631Z,100737.34
2022-08-26T18:15:47.704Z,100740.63
2022-08-26T18:18:15.944Z,100735.53
2022-08-26T18:20:45.127Z,100743.25
2022-08-26T18:23:13.015Z,100750.88
2022-08-26T18:25:43.734Z,100750.38
2022-08-26T18:28:10.919Z,100753.31
2022-08-26T18:30:38.035Z,100748.09
2022-08-26T18:33:04.889Z,100744.59
2022-08-26T18:35:31.753Z,100726.75
2022-08-26T18:38:07.719Z,100728.94
2022-08-26T18:40:43.419Z,100736.59
2022-08-26T18:43:12.034Z,100745.94
2022-08-26T18:45:38.935Z,100756.84
2022-08-26T18:48:06.134Z,100753.38
2022-08-26T18:50:33.015Z,100744.22
2022-08-26T18:53:01.805Z,100730.38
2022-08-26T18:55:28.599Z,100731.25
2022-08-26T18:57:55.391Z,100746.94
2022-08-26T19:00:22.265Z,100753.59
2022-08-26T19:02:52.015Z,100762.94
2022-08-26T19:05:22.521Z,100784.94
2022-08-26T19:07:49.326Z,100777.97
2022-08-26T19:10:16.168Z,100778.38
2022-08-26T19:12:43.482Z,100787.75
2022-08-26T19:15:11.295Z,100785.47
2022-08-26T19:17:38.120Z,100791.44
2022-08-26T19:20:05.755Z,100780.34
2022-08-26T19:22:32.575Z,100789.16
2022-08-26T19:24:59.388Z,100784.34
2022-08-26T19:27:26.175Z,100782.22
2022-08-26T19:29:52.966Z,100780.88
2022-08-26T19:32:24.096Z,100771.41
2022-08-26T19:34:52.239Z,100769.22
2022-08-26T19:37:20.267Z,100778.84
2022-08-26T19:39:47.418Z,100784.72
2022-08-26T19:42:14.334Z,100794.94
2022-08-26T19:44:59.482Z,100803.25
2022-08-26T19:47:26.312Z,100799.13
2022-08-26T19:49:55.162Z,100804.19
2022-08-26T19:52:24.249Z,100804.50
2022-08-26T19:54:58.020Z,100805.19
2022-08-26T19:57:24.887Z,100805.31
2022-08-26T19:59:51.726Z,100809.91
2022-08-26T20:02:19.162Z,100793.75
2022-08-26T20:04:46.125Z,100792.56
2022-08-26T20:07:18.119Z,100787.69
2022-08-26T20:09:47.373Z,100796.13
2022-08-26T20:12:15.362Z,100793.59
2022-08-26T20:14:42.523Z,100777.41
2022-08-26T20:17:09.397Z,100770.44
2022-08-26T20:19:55.356Z,100768.69
2022-08-26T20:22:22.620Z,100768.00
2022-08-26T20:24:50.179Z,100763.63
2022-08-26T20:27:16.996Z,100758.22
2022-08-26T20:29:43.943Z,100760.13
2022-08-26T20:32:11.988Z,100760.13
2022-08-26T20:34:39.806Z,100764.66
2022-08-26T20:37:08.347Z,100772.88
2022-08-26T20:39:35.252Z,100780.25
2022-08-26T20:42:03.056Z,100778.50
2022-08-26T20:44:30.164Z,100778.50
2022-08-26T20:46:58.999Z,100777.81
2022-08-26T20:49:27.665Z,100774.44
2022-08-26T20:51:55.012Z,100776.34
2022-08-26T20:54:28.238Z,100789.91
2022-08-26T20:56:57.213Z,100793.75
2022-08-26T20:59:25.298Z,100806.56
2022-08-26T21:01:53.019Z,100805.16
2022-08-26T21:04:23.349Z,100808.13
2022-08-26T21:06:52.382Z,100799.41
2022-08-26T21:09:21.996Z,100799.50
2022-08-26T21:11:49.938Z,100805.88
2022-08-26T21:14:17.452Z,100807.78
2022-08-26T21:16:45.617Z,100815.16
2022-08-26T21:19:15.815Z,100817.06
2022-08-26T21:21:44.360Z,100814.47
2022-08-26T21:24:12.639Z,100826.16
2022-08-26T21:26:39.428Z,100828.00
2022-08-26T21:29:09.512Z,100831.50
2022-08-26T21:31:40.010Z,100830.59
2022-08-26T21:34:09.250Z,100820.72
2022-08-26T21:36:36.062Z,100815.44
2022-08-26T21:39:02.882Z,100819.88
2022-08-26T21:41:29.936Z,100824.25
2022-08-26T21:44:00.973Z,100826.75
2022-08-26T21:46:30.326Z,100831.22
2022-08-26T21:49:02.858Z,100829.31
2022-08-26T21:51:33.570Z,100824.84
2022-08-26T21:54:02.300Z,100828.69
2022-08-26T21:56:32.838Z,100826.94
2022-08-26T21:59:00.627Z,100820.72
2022-08-26T22:01:32.498Z,100826.16
2022-08-26T22:03:59.633Z,100827.13
2022-08-26T22:06:28.289Z,100826.41
2022-08-26T22:08:56.252Z,100826.53
2022-08-26T22:11:24.480Z,100823.13
2022-08-26T22:13:51.492Z,100830.53
2022-08-26T22:16:19.107Z,100831.41
2022-08-26T22:18:46.250Z,100834.19
2022-08-26T22:21:19.570Z,100826.88
2022-08-26T22:23:47.293Z,100832.44
2022-08-26T22:26:20.623Z,100830.69
2022-08-26T22:28:57.467Z,100840.72
2022-08-26T22:31:28.075Z,100836.44
2022-08-26T22:34:07.786Z,100840.13
2022-08-26T22:36:34.836Z,100845.69
2022-08-26T22:39:01.668Z,100842.22
2022-08-26T22:41:28.487Z,100839.50
2022-08-26T22:44:02.598Z,100836.81
2022-08-26T22:46:29.700Z,100830.31
2022-08-26T22:48:56.718Z,100834.00
2022-08-26T22:51:23.892Z,100830.50
2022-08-26T22:53:50.761Z,100830.50
2022-08-26T22:56:19.009Z,100827.00
2022-08-26T22:58:45.917Z,100822.72
2022-08-26T23:01:13.215Z,100825.53
2022-08-26T23:03:40.178Z,100832.88
2022-08-26T23:06:10.054Z,100820.38
2022-08-26T23:08:38.343Z,100831.03
2022-08-26T23:11:09.844Z,100824.75
2022-08-26T23:13:37.064Z,100832.88
2022-08-26T23:16:09.086Z,100825.53
2022-08-26T23:18:36.237Z,100825.53
2022-08-26T23:21:03.146Z,100820.03
2022-08-26T23:23:31.015Z,100815.47
2022-08-26T23:25:58.329Z,100819.00
2022-08-26T23:28:26.344Z,100813.47
2022-08-26T23:30:53.790Z,100809.88
2022-08-26T23:33:21.002Z,100814.44
2022-08-26T23:35:47.832Z,100809.03
2022-08-26T23:38:15.680Z,100803.63
2022-08-26T23:40:42.696Z,100799.03
2022-08-26T23:43:11.500Z,100804.47
2022-08-26T23:45:38.762Z,100804.56
2022-08-26T23:48:06.166Z,100796.53
2022-08-26T23:50:51.453Z,100792.06
2022-08-26T23:53:22.245Z,100795.75
2022-08-26T23:55:52.214Z,100793.88
2022-08-26T23:58:21.120Z,100790.34
